Morton, IL

1:10 AM CDT on May 24, 2015 (GMT -0500)
Lincoln | | Change Station
CLOSE
Current Station
Airport
Location: Lincoln,
Elevation: 597 ft
Nearby Weather Stations

Elev 597 ft 40.16 °N, 89.34 °W | Updated 15 minutes ago

Mostly Cloudy
Mostly Cloudy
69 °F
Feels Like 69 °F
N
4
Wind Variable Wind from SSE

Today
High -- | Low -- °F
--% Chance of Precip.
Yesterday
High -- | Low -- °F
Precip. -- in
5:33 AM 8:15 PM
Waxing Crescent, 36% visible
Pressure 30.15 in
Visibility 10.0 miles
Clouds Scattered Clouds 8500 ft
Scattered Clouds 9000 ft
Mostly Cloudy 11000 ft
Dew Point 50 °F
Humidity 51%
Rainfall 0.00 in
Snow Depth Not available.
UV 0 out of 12
Pollen 9.20 out of 12
Air Quality Not available.
Flu Activity Sporadic
METAR KAAA 240555Z AUTO 16003KT 10SM SCT085 SCT090 BKN110 21/10 A3015 RMK AO2 T02050100 10248 20202 402700128

More Conditions Fewer Conditions

Pressure 30.15 in
Visibility 10.0 miles
Clouds Scattered Clouds 8500 ft
Scattered Clouds 9000 ft
Mostly Cloudy 11000 ft
Dew Point 50 °F
Humidity 51%
Rainfall 0.00 in
Snow Depth Not available.
UV 0 out of 12
Pollen 9.20 out of 12
Air Quality Not available.
Flu Activity Sporadic
METAR KAAA 240555Z AUTO 16003KT 10SM SCT085 SCT090 BKN110 21/10 A3015 RMK AO2 T02050100 10248 20202 402700128

More Conditions Fewer Conditions

10-Day Weather Forecast

Almanac

Astronomy

May. 24, 2015 Rise Set
Actual Time
Civil Twilight
Nautical Twilight
Astronomical Twilight
Moon
Length of Visible Light
Length of Day
Tomorrow will be .
, % of the Moon is Illuminated

Today's Extremes

State Highs State Lows

Community

WunderPhotos

Upload Photos

1,823,694 photos uploaded!

WunderBlogs® & News

Nearby

Air Quality

  Air Quality AQ Index Pollutant
Not available.

Snow Depth

Station Depth Elevation

Earthquake Activity

City Distance Mag. Time & Date
Minimum magnitude displayed is 2.5.

Coastal Water Temperatures

Place Temperature

Stations

Nearby Weather Stations

Station Location Temp. Windchill Dew Point Humidity Wind Precip. Elev Updated Type